sensor_id;sensor_type;location;lat;lon;timestamp;P1;durP1;ratioP1;P2;durP2;ratioP2
10154;SDS011;5118;48.570;7.916;2023-03-24T00:01:09;3.57;;;3.27;;
10154;SDS011;5118;48.570;7.916;2023-03-24T00:03:37;3.47;;;3.00;;
10154;SDS011;5118;48.570;7.916;2023-03-24T00:06:06;3.53;;;3.23;;
10154;SDS011;5118;48.570;7.916;2023-03-24T00:08:39;3.30;;;3.00;;
10154;SDS011;5118;48.570;7.916;2023-03-24T00:11:10;3.50;;;3.20;;
10154;SDS011;5118;48.570;7.916;2023-03-24T00:13:39;3.40;;;3.10;;
10154;SDS011;5118;48.570;7.916;2023-03-24T00:16:09;3.30;;;3.00;;
10154;SDS011;5118;48.570;7.916;2023-03-24T00:18:39;3.40;;;3.10;;
10154;SDS011;5118;48.570;7.916;2023-03-24T00:21:08;3.67;;;3.23;;
10154;SDS011;5118;48.570;7.916;2023-03-24T00:23:37;3.43;;;2.90;;
10154;SDS011;5118;48.570;7.916;2023-03-24T00:26:09;3.23;;;2.90;;
10154;SDS011;5118;48.570;7.916;2023-03-24T00:28:41;3.40;;;3.10;;
10154;SDS011;5118;48.570;7.916;2023-03-24T00:31:11;3.37;;;3.07;;
10154;SDS011;5118;48.570;7.916;2023-03-24T00:33:41;3.17;;;2.97;;
10154;SDS011;5118;48.570;7.916;2023-03-24T00:36:13;4.03;;;3.30;;
10154;SDS011;5118;48.570;7.916;2023-03-24T00:38:42;3.37;;;3.07;;
10154;SDS011;5118;48.570;7.916;2023-03-24T00:41:14;3.70;;;2.90;;
10154;SDS011;5118;48.570;7.916;2023-03-24T00:43:45;4.13;;;3.00;;
10154;SDS011;5118;48.570;7.916;2023-03-24T00:46:15;2.90;;;2.70;;
10154;SDS011;5118;48.570;7.916;2023-03-24T00:48:55;2.90;;;2.70;;
10154;SDS011;5118;48.570;7.916;2023-03-24T00:51:29;3.20;;;2.60;;
10154;SDS011;5118;48.570;7.916;2023-03-24T00:53:59;4.43;;;2.87;;
10154;SDS011;5118;48.570;7.916;2023-03-24T00:56:31;3.13;;;2.80;;
10154;SDS011;5118;48.570;7.916;2023-03-24T00:59:03;3.40;;;2.70;;
10154;SDS011;5118;48.570;7.916;2023-03-24T01:01:33;3.00;;;2.80;;
10154;SDS011;5118;48.570;7.916;2023-03-24T01:04:03;3.27;;;2.97;;
10154;SDS011;5118;48.570;7.916;2023-03-24T01:06:33;3.00;;;2.70;;
10154;SDS011;5118;48.570;7.916;2023-03-24T01:09:03;4.40;;;2.70;;
10154;SDS011;5118;48.570;7.916;2023-03-24T01:11:35;3.33;;;2.60;;
10154;SDS011;5118;48.570;7.916;2023-03-24T01:14:06;2.90;;;2.70;;
10154;SDS011;5118;48.570;7.916;2023-03-24T01:16:35;2.90;;;2.60;;
10154;SDS011;5118;48.570;7.916;2023-03-24T01:19:04;2.90;;;2.70;;
10154;SDS011;5118;48.570;7.916;2023-03-24T01:21:35;3.33;;;2.70;;
10154;SDS011;5118;48.570;7.916;2023-03-24T01:24:04;2.90;;;2.50;;
10154;SDS011;5118;48.570;7.916;2023-03-24T01:26:35;4.63;;;2.80;;
10154;SDS011;5118;48.570;7.916;2023-03-24T01:29:03;2.73;;;2.53;;
10154;SDS011;5118;48.570;7.916;2023-03-24T01:31:32;3.13;;;2.83;;
10154;SDS011;5118;48.570;7.916;2023-03-24T01:34:01;4.50;;;2.90;;
10154;SDS011;5118;48.570;7.916;2023-03-24T01:36:30;3.40;;;2.97;;
10154;SDS011;5118;48.570;7.916;2023-03-24T01:38:58;4.00;;;2.70;;
10154;SDS011;5118;48.570;7.916;2023-03-24T01:41:27;2.97;;;2.77;;
10154;SDS011;5118;48.570;7.916;2023-03-24T01:47:05;3.23;;;2.90;;
10154;SDS011;5118;48.570;7.916;2023-03-24T01:49:35;3.33;;;2.77;;
10154;SDS011;5118;48.570;7.916;2023-03-24T01:52:08;3.27;;;2.97;;
10154;SDS011;5118;48.570;7.916;2023-03-24T01:54:42;3.10;;;2.70;;
10154;SDS011;5118;48.570;7.916;2023-03-24T01:57:14;3.20;;;2.90;;
10154;SDS011;5118;48.570;7.916;2023-03-24T01:59:48;3.07;;;2.70;;
10154;SDS011;5118;48.570;7.916;2023-03-24T02:02:46;2.63;;;2.43;;
10154;SDS011;5118;48.570;7.916;2023-03-24T02:05:23;2.83;;;2.60;;
10154;SDS011;5118;48.570;7.916;2023-03-24T02:08:12;2.83;;;2.60;;
10154;SDS011;5118;48.570;7.916;2023-03-24T02:10:44;4.23;;;2.70;;
10154;SDS011;5118;48.570;7.916;2023-03-24T02:13:14;2.87;;;2.50;;
10154;SDS011;5118;48.570;7.916;2023-03-24T02:15:56;3.10;;;2.80;;
10154;SDS011;5118;48.570;7.916;2023-03-24T02:18:40;3.17;;;2.57;;
10154;SDS011;5118;48.570;7.916;2023-03-24T02:24:46;3.10;;;2.80;;
10154;SDS011;5118;48.570;7.916;2023-03-24T02:27:54;3.30;;;3.00;;
10154;SDS011;5118;48.570;7.916;2023-03-24T02:30:47;4.13;;;2.90;;
10154;SDS011;5118;48.570;7.916;2023-03-24T02:33:43;3.40;;;2.97;;
10154;SDS011;5118;48.570;7.916;2023-03-24T02:36:38;3.83;;;2.80;;
10154;SDS011;5118;48.570;7.916;2023-03-24T02:39:42;4.53;;;2.80;;
10154;SDS011;5118;48.570;7.916;2023-03-24T02:42:24;4.73;;;2.97;;
10154;SDS011;5118;48.570;7.916;2023-03-24T02:45:06;3.33;;;2.83;;
10154;SDS011;5118;48.570;7.916;2023-03-24T02:47:51;2.87;;;2.67;;
10154;SDS011;5118;48.570;7.916;2023-03-24T02:50:35;2.77;;;2.57;;
10154;SDS011;5118;48.570;7.916;2023-03-24T02:53:10;2.90;;;2.70;;
10154;SDS011;5118;48.570;7.916;2023-03-24T02:56:05;3.57;;;2.83;;
10154;SDS011;5118;48.570;7.916;2023-03-24T02:58:39;4.57;;;2.80;;
10154;SDS011;5118;48.570;7.916;2023-03-24T03:01:14;3.03;;;2.83;;
10154;SDS011;5118;48.570;7.916;2023-03-24T03:04:24;3.10;;;2.80;;
10154;SDS011;5118;48.570;7.916;2023-03-24T03:06:59;3.10;;;2.80;;
10154;SDS011;5118;48.570;7.916;2023-03-24T03:09:35;3.10;;;2.60;;
10154;SDS011;5118;48.570;7.916;2023-03-24T03:12:09;2.90;;;2.70;;
10154;SDS011;5118;48.570;7.916;2023-03-24T03:14:40;3.23;;;2.93;;
10154;SDS011;5118;48.570;7.916;2023-03-24T03:17:14;3.10;;;2.80;;
10154;SDS011;5118;48.570;7.916;2023-03-24T03:19:46;4.17;;;2.90;;
10154;SDS011;5118;48.570;7.916;2023-03-24T03:22:19;3.10;;;2.80;;
10154;SDS011;5118;48.570;7.916;2023-03-24T03:24:51;4.93;;;3.00;;
10154;SDS011;5118;48.570;7.916;2023-03-24T03:27:24;3.43;;;2.97;;
10154;SDS011;5118;48.570;7.916;2023-03-24T03:29:57;3.17;;;2.77;;
10154;SDS011;5118;48.570;7.916;2023-03-24T03:32:29;2.80;;;2.60;;
10154;SDS011;5118;48.570;7.916;2023-03-24T03:35:00;4.03;;;2.93;;
10154;SDS011;5118;48.570;7.916;2023-03-24T03:37:35;4.10;;;2.90;;
10154;SDS011;5118;48.570;7.916;2023-03-24T03:40:13;3.13;;;2.83;;
10154;SDS011;5118;48.570;7.916;2023-03-24T03:42:49;3.07;;;2.77;;
10154;SDS011;5118;48.570;7.916;2023-03-24T03:45:18;3.20;;;2.90;;
10154;SDS011;5118;48.570;7.916;2023-03-24T03:47:47;4.53;;;2.83;;
10154;SDS011;5118;48.570;7.916;2023-03-24T03:50:16;3.40;;;3.10;;
10154;SDS011;5118;48.570;7.916;2023-03-24T03:52:45;3.50;;;3.20;;
10154;SDS011;5118;48.570;7.916;2023-03-24T03:55:13;3.30;;;3.00;;
10154;SDS011;5118;48.570;7.916;2023-03-24T03:57:42;3.20;;;2.83;;
10154;SDS011;5118;48.570;7.916;2023-03-24T04:00:20;4.17;;;3.13;;
10154;SDS011;5118;48.570;7.916;2023-03-24T04:03:18;4.17;;;3.13;;
10154;SDS011;5118;48.570;7.916;2023-03-24T04:06:00;3.77;;;3.20;;
10154;SDS011;5118;48.570;7.916;2023-03-24T04:08:38;4.87;;;3.47;;
10154;SDS011;5118;48.570;7.916;2023-03-24T04:11:24;4.10;;;3.23;;
10154;SDS011;5118;48.570;7.916;2023-03-24T04:17:27;9.50;;;4.03;;
10154;SDS011;5118;48.570;7.916;2023-03-24T04:20:13;23.50;;;4.43;;
10154;SDS011;5118;48.570;7.916;2023-03-24T04:22:53;11.67;;;4.80;;
10154;SDS011;5118;48.570;7.916;2023-03-24T04:25:31;18.37;;;5.90;;
10154;SDS011;5118;48.570;7.916;2023-03-24T04:28:08;7.27;;;6.00;;
10154;SDS011;5118;48.570;7.916;2023-03-24T04:30:45;10.93;;;6.00;;
10154;SDS011;5118;48.570;7.916;2023-03-24T04:33:24;9.40;;;5.63;;
10154;SDS011;5118;48.570;7.916;2023-03-24T04:35:59;7.87;;;6.23;;
10154;SDS011;5118;48.570;7.916;2023-03-24T04:38:47;7.23;;;6.53;;
10154;SDS011;5118;48.570;7.916;2023-03-24T04:41:42;9.57;;;7.40;;
10154;SDS011;5118;48.570;7.916;2023-03-24T04:44:21;7.80;;;7.10;;
10154;SDS011;5118;48.570;7.916;2023-03-24T04:47:14;8.63;;;7.80;;
10154;SDS011;5118;48.570;7.916;2023-03-24T04:50:00;8.43;;;7.63;;
10154;SDS011;5118;48.570;7.916;2023-03-24T04:52:31;7.97;;;7.17;;
10154;SDS011;5118;48.570;7.916;2023-03-24T04:55:01;9.33;;;8.10;;
10154;SDS011;5118;48.570;7.916;2023-03-24T04:57:31;8.63;;;6.93;;
10154;SDS011;5118;48.570;7.916;2023-03-24T05:00:03;7.97;;;7.17;;
10154;SDS011;5118;48.570;7.916;2023-03-24T05:02:34;6.80;;;6.20;;
10154;SDS011;5118;48.570;7.916;2023-03-24T05:05:13;6.77;;;6.17;;
10154;SDS011;5118;48.570;7.916;2023-03-24T05:07:45;6.63;;;6.00;;
10154;SDS011;5118;48.570;7.916;2023-03-24T05:10:14;6.43;;;5.83;;
10154;SDS011;5118;48.570;7.916;2023-03-24T05:12:51;6.90;;;5.83;;
10154;SDS011;5118;48.570;7.916;2023-03-24T05:15:25;6.33;;;5.70;;
10154;SDS011;5118;48.570;7.916;2023-03-24T05:18:11;6.13;;;5.53;;
10154;SDS011;5118;48.570;7.916;2023-03-24T05:20:40;5.00;;;4.40;;
10154;SDS011;5118;48.570;7.916;2023-03-24T05:23:16;4.83;;;4.43;;
10154;SDS011;5118;48.570;7.916;2023-03-24T05:25:46;5.10;;;4.70;;
10154;SDS011;5118;48.570;7.916;2023-03-24T05:28:15;5.83;;;5.23;;
10154;SDS011;5118;48.570;7.916;2023-03-24T05:30:43;6.87;;;5.50;;
10154;SDS011;5118;48.570;7.916;2023-03-24T05:33:38;6.43;;;5.40;;
10154;SDS011;5118;48.570;7.916;2023-03-24T05:36:12;6.23;;;4.80;;
10154;SDS011;5118;48.570;7.916;2023-03-24T05:38:51;5.70;;;5.20;;
10154;SDS011;5118;48.570;7.916;2023-03-24T05:41:22;5.40;;;4.90;;
10154;SDS011;5118;48.570;7.916;2023-03-24T05:43:50;5.23;;;4.73;;
10154;SDS011;5118;48.570;7.916;2023-03-24T05:46:19;5.33;;;4.90;;
10154;SDS011;5118;48.570;7.916;2023-03-24T05:48:50;5.87;;;5.17;;
10154;SDS011;5118;48.570;7.916;2023-03-24T05:51:21;6.10;;;5.50;;
10154;SDS011;5118;48.570;7.916;2023-03-24T05:53:59;6.00;;;5.50;;
10154;SDS011;5118;48.570;7.916;2023-03-24T05:56:32;6.40;;;5.07;;
10154;SDS011;5118;48.570;7.916;2023-03-24T05:59:23;6.93;;;6.23;;
10154;SDS011;5118;48.570;7.916;2023-03-24T06:01:51;5.90;;;5.30;;
10154;SDS011;5118;48.570;7.916;2023-03-24T06:04:34;6.20;;;5.43;;
10154;SDS011;5118;48.570;7.916;2023-03-24T06:07:12;7.47;;;5.27;;
10154;SDS011;5118;48.570;7.916;2023-03-24T06:09:43;6.07;;;5.47;;
10154;SDS011;5118;48.570;7.916;2023-03-24T06:12:20;6.03;;;5.47;;
10154;SDS011;5118;48.570;7.916;2023-03-24T06:14:53;6.13;;;5.63;;
10154;SDS011;5118;48.570;7.916;2023-03-24T06:17:22;7.60;;;6.57;;
10154;SDS011;5118;48.570;7.916;2023-03-24T06:19:53;8.10;;;6.20;;
10154;SDS011;5118;48.570;7.916;2023-03-24T06:22:43;8.30;;;7.50;;
10154;SDS011;5118;48.570;7.916;2023-03-24T06:25:16;6.67;;;6.07;;
10154;SDS011;5118;48.570;7.916;2023-03-24T06:27:58;9.63;;;5.53;;
10154;SDS011;5118;48.570;7.916;2023-03-24T06:30:32;8.53;;;6.37;;
10154;SDS011;5118;48.570;7.916;2023-03-24T06:33:02;8.43;;;7.37;;
10154;SDS011;5118;48.570;7.916;2023-03-24T06:35:34;9.43;;;8.53;;
10154;SDS011;5118;48.570;7.916;2023-03-24T06:38:07;9.93;;;8.93;;
10154;SDS011;5118;48.570;7.916;2023-03-24T06:40:36;8.63;;;7.57;;
10154;SDS011;5118;48.570;7.916;2023-03-24T06:43:06;8.73;;;7.83;;
10154;SDS011;5118;48.570;7.916;2023-03-24T06:45:36;10.43;;;8.97;;
10154;SDS011;5118;48.570;7.916;2023-03-24T06:48:09;10.90;;;9.80;;
10154;SDS011;5118;48.570;7.916;2023-03-24T06:50:37;9.93;;;8.47;;
10154;SDS011;5118;48.570;7.916;2023-03-24T06:53:10;16.73;;;8.30;;
10154;SDS011;5118;48.570;7.916;2023-03-24T06:55:38;12.07;;;8.83;;
10154;SDS011;5118;48.570;7.916;2023-03-24T06:58:08;9.33;;;7.93;;
10154;SDS011;5118;48.570;7.916;2023-03-24T07:00:51;10.10;;;8.77;;
10154;SDS011;5118;48.570;7.916;2023-03-24T07:03:27;9.80;;;8.80;;
10154;SDS011;5118;48.570;7.916;2023-03-24T07:06:25;10.53;;;8.07;;
10154;SDS011;5118;48.570;7.916;2023-03-24T07:09:02;10.87;;;9.73;;
10154;SDS011;5118;48.570;7.916;2023-03-24T07:11:30;10.87;;;9.77;;
10154;SDS011;5118;48.570;7.916;2023-03-24T07:14:01;11.00;;;9.87;;
10154;SDS011;5118;48.570;7.916;2023-03-24T07:16:31;10.07;;;8.83;;
10154;SDS011;5118;48.570;7.916;2023-03-24T07:19:21;10.20;;;9.13;;
10154;SDS011;5118;48.570;7.916;2023-03-24T07:22:03;12.80;;;9.90;;
10154;SDS011;5118;48.570;7.916;2023-03-24T07:24:50;10.67;;;9.67;;
10154;SDS011;5118;48.570;7.916;2023-03-24T07:27:41;10.50;;;9.47;;
10154;SDS011;5118;48.570;7.916;2023-03-24T07:30:10;10.07;;;9.07;;
10154;SDS011;5118;48.570;7.916;2023-03-24T07:32:42;10.57;;;9.47;;
10154;SDS011;5118;48.570;7.916;2023-03-24T07:35:10;12.00;;;9.63;;
10154;SDS011;5118;48.570;7.916;2023-03-24T07:37:39;10.10;;;9.10;;
10154;SDS011;5118;48.570;7.916;2023-03-24T07:40:09;11.57;;;9.67;;
10154;SDS011;5118;48.570;7.916;2023-03-24T07:42:39;10.33;;;9.30;;
10154;SDS011;5118;48.570;7.916;2023-03-24T07:45:30;11.63;;;9.03;;
10154;SDS011;5118;48.570;7.916;2023-03-24T07:47:59;10.13;;;9.00;;
10154;SDS011;5118;48.570;7.916;2023-03-24T07:50:32;9.90;;;8.43;;
10154;SDS011;5118;48.570;7.916;2023-03-24T07:53:07;11.27;;;8.90;;
10154;SDS011;5118;48.570;7.916;2023-03-24T07:55:37;10.40;;;8.13;;
10154;SDS011;5118;48.570;7.916;2023-03-24T07:58:12;9.27;;;8.23;;
10154;SDS011;5118;48.570;7.916;2023-03-24T08:00:53;8.97;;;8.07;;
10154;SDS011;5118;48.570;7.916;2023-03-24T08:03:28;8.97;;;8.07;;
10154;SDS011;5118;48.570;7.916;2023-03-24T08:06:15;8.70;;;7.80;;
10154;SDS011;5118;48.570;7.916;2023-03-24T08:08:49;8.53;;;7.73;;
10154;SDS011;5118;48.570;7.916;2023-03-24T08:11:18;7.67;;;6.90;;
10154;SDS011;5118;48.570;7.916;2023-03-24T08:13:47;8.43;;;7.53;;
10154;SDS011;5118;48.570;7.916;2023-03-24T08:16:15;8.90;;;7.13;;
10154;SDS011;5118;48.570;7.916;2023-03-24T08:18:44;7.37;;;6.30;;
10154;SDS011;5118;48.570;7.916;2023-03-24T08:21:14;8.27;;;7.30;;
10154;SDS011;5118;48.570;7.916;2023-03-24T08:23:42;7.47;;;6.77;;
10154;SDS011;5118;48.570;7.916;2023-03-24T08:26:10;7.07;;;6.33;;
10154;SDS011;5118;48.570;7.916;2023-03-24T08:28:40;7.07;;;6.43;;
10154;SDS011;5118;48.570;7.916;2023-03-24T08:31:09;6.90;;;6.20;;
10154;SDS011;5118;48.570;7.916;2023-03-24T08:33:38;7.67;;;6.37;;
10154;SDS011;5118;48.570;7.916;2023-03-24T08:36:07;6.80;;;5.70;;
10154;SDS011;5118;48.570;7.916;2023-03-24T08:38:35;6.70;;;6.00;;
10154;SDS011;5118;48.570;7.916;2023-03-24T08:41:05;5.97;;;5.40;;
10154;SDS011;5118;48.570;7.916;2023-03-24T08:43:34;6.13;;;5.30;;
10154;SDS011;5118;48.570;7.916;2023-03-24T08:46:05;6.07;;;5.47;;
10154;SDS011;5118;48.570;7.916;2023-03-24T08:48:38;6.10;;;5.20;;
10154;SDS011;5118;48.570;7.916;2023-03-24T08:51:10;5.13;;;4.63;;
10154;SDS011;5118;48.570;7.916;2023-03-24T08:53:40;5.63;;;5.13;;
10154;SDS011;5118;48.570;7.916;2023-03-24T08:56:09;5.40;;;4.90;;
10154;SDS011;5118;48.570;7.916;2023-03-24T08:58:37;5.30;;;4.80;;
10154;SDS011;5118;48.570;7.916;2023-03-24T09:01:07;5.53;;;4.70;;
10154;SDS011;5118;48.570;7.916;2023-03-24T09:03:36;5.03;;;4.60;;
10154;SDS011;5118;48.570;7.916;2023-03-24T09:06:05;5.10;;;4.60;;
10154;SDS011;5118;48.570;7.916;2023-03-24T09:08:34;6.33;;;4.60;;
10154;SDS011;5118;48.570;7.916;2023-03-24T09:11:03;5.00;;;4.37;;
10154;SDS011;5118;48.570;7.916;2023-03-24T09:13:32;4.73;;;4.33;;
10154;SDS011;5118;48.570;7.916;2023-03-24T09:16:01;5.23;;;4.73;;
10154;SDS011;5118;48.570;7.916;2023-03-24T09:18:32;5.47;;;4.83;;
10154;SDS011;5118;48.570;7.916;2023-03-24T09:21:01;5.90;;;5.07;;
10154;SDS011;5118;48.570;7.916;2023-03-24T09:23:29;4.93;;;4.33;;
10154;SDS011;5118;48.570;7.916;2023-03-24T09:25:58;5.20;;;4.70;;
10154;SDS011;5118;48.570;7.916;2023-03-24T09:28:27;5.43;;;4.50;;
10154;SDS011;5118;48.570;7.916;2023-03-24T09:30:56;5.43;;;4.93;;
10154;SDS011;5118;48.570;7.916;2023-03-24T09:33:25;4.90;;;4.50;;
10154;SDS011;5118;48.570;7.916;2023-03-24T09:35:57;6.70;;;4.40;;
10154;SDS011;5118;48.570;7.916;2023-03-24T09:38:27;4.80;;;4.30;;
10154;SDS011;5118;48.570;7.916;2023-03-24T09:40:56;4.60;;;4.20;;
10154;SDS011;5118;48.570;7.916;2023-03-24T09:43:30;4.50;;;4.10;;
10154;SDS011;5118;48.570;7.916;2023-03-24T09:46:04;4.87;;;4.37;;
10154;SDS011;5118;48.570;7.916;2023-03-24T09:48:38;4.03;;;3.73;;
10154;SDS011;5118;48.570;7.916;2023-03-24T09:51:14;4.27;;;3.87;;
10154;SDS011;5118;48.570;7.916;2023-03-24T09:53:48;4.07;;;3.67;;
10154;SDS011;5118;48.570;7.916;2023-03-24T09:56:22;4.27;;;3.80;;
10154;SDS011;5118;48.570;7.916;2023-03-24T09:58:59;4.27;;;3.90;;
10154;SDS011;5118;48.570;7.916;2023-03-24T10:01:30;3.70;;;3.40;;
10154;SDS011;5118;48.570;7.916;2023-03-24T10:04:01;4.00;;;3.60;;
10154;SDS011;5118;48.570;7.916;2023-03-24T10:06:32;4.87;;;3.30;;
10154;SDS011;5118;48.570;7.916;2023-03-24T10:09:12;3.70;;;3.30;;
10154;SDS011;5118;48.570;7.916;2023-03-24T10:11:50;4.00;;;3.70;;
10154;SDS011;5118;48.570;7.916;2023-03-24T10:14:34;3.53;;;3.20;;
10154;SDS011;5118;48.570;7.916;2023-03-24T10:17:14;4.40;;;3.57;;
10154;SDS011;5118;48.570;7.916;2023-03-24T10:19:51;3.30;;;3.00;;
10154;SDS011;5118;48.570;7.916;2023-03-24T10:22:28;3.80;;;3.40;;
10154;SDS011;5118;48.570;7.916;2023-03-24T10:25:05;3.50;;;3.20;;
10154;SDS011;5118;48.570;7.916;2023-03-24T10:27:40;4.50;;;3.50;;
10154;SDS011;5118;48.570;7.916;2023-03-24T10:30:14;5.47;;;3.50;;
10154;SDS011;5118;48.570;7.916;2023-03-24T10:32:46;5.33;;;4.23;;
10154;SDS011;5118;48.570;7.916;2023-03-24T10:35:15;6.67;;;3.90;;
10154;SDS011;5118;48.570;7.916;2023-03-24T10:37:47;4.00;;;3.70;;
10154;SDS011;5118;48.570;7.916;2023-03-24T10:40:17;5.33;;;4.67;;
10154;SDS011;5118;48.570;7.916;2023-03-24T10:42:49;5.53;;;4.77;;
10154;SDS011;5118;48.570;7.916;2023-03-24T10:45:35;4.57;;;4.13;;
10154;SDS011;5118;48.570;7.916;2023-03-24T10:48:06;4.90;;;4.40;;
10154;SDS011;5118;48.570;7.916;2023-03-24T10:50:35;5.27;;;4.73;;
10154;SDS011;5118;48.570;7.916;2023-03-24T10:53:16;5.00;;;4.37;;
10154;SDS011;5118;48.570;7.916;2023-03-24T10:55:46;4.37;;;3.97;;
10154;SDS011;5118;48.570;7.916;2023-03-24T10:58:18;4.40;;;4.00;;
10154;SDS011;5118;48.570;7.916;2023-03-24T11:00:57;6.07;;;4.03;;
10154;SDS011;5118;48.570;7.916;2023-03-24T11:03:27;4.10;;;3.73;;
10154;SDS011;5118;48.570;7.916;2023-03-24T11:05:58;5.13;;;3.80;;
10154;SDS011;5118;48.570;7.916;2023-03-24T11:08:33;4.20;;;3.50;;
10154;SDS011;5118;48.570;7.916;2023-03-24T11:11:12;3.63;;;3.33;;
10154;SDS011;5118;48.570;7.916;2023-03-24T11:13:52;4.10;;;3.43;;
10154;SDS011;5118;48.570;7.916;2023-03-24T11:16:25;4.10;;;3.70;;
10154;SDS011;5118;48.570;7.916;2023-03-24T11:18:56;3.77;;;3.13;;
10154;SDS011;5118;48.570;7.916;2023-03-24T11:21:25;4.00;;;3.17;;
10154;SDS011;5118;48.570;7.916;2023-03-24T11:23:57;3.20;;;2.90;;
10154;SDS011;5118;48.570;7.916;2023-03-24T11:26:27;3.37;;;3.07;;
10154;SDS011;5118;48.570;7.916;2023-03-24T11:28:59;3.60;;;3.30;;
10154;SDS011;5118;48.570;7.916;2023-03-24T11:31:30;3.47;;;2.90;;
10154;SDS011;5118;48.570;7.916;2023-03-24T11:34:05;2.30;;;2.10;;
10154;SDS011;5118;48.570;7.916;2023-03-24T11:36:39;2.20;;;2.00;;
10154;SDS011;5118;48.570;7.916;2023-03-24T11:39:16;2.40;;;2.20;;
10154;SDS011;5118;48.570;7.916;2023-03-24T11:44:44;4.07;;;2.77;;
10154;SDS011;5118;48.570;7.916;2023-03-24T11:47:21;3.67;;;3.37;;
10154;SDS011;5118;48.570;7.916;2023-03-24T11:50:00;3.10;;;2.80;;
10154;SDS011;5118;48.570;7.916;2023-03-24T11:52:43;8.83;;;3.20;;
10154;SDS011;5118;48.570;7.916;2023-03-24T11:55:20;3.07;;;2.80;;
10154;SDS011;5118;48.570;7.916;2023-03-24T11:57:59;5.50;;;2.70;;
10154;SDS011;5118;48.570;7.916;2023-03-24T12:01:01;5.93;;;3.00;;
10154;SDS011;5118;48.570;7.916;2023-03-24T12:03:51;3.90;;;3.20;;
10154;SDS011;5118;48.570;7.916;2023-03-24T12:06:36;3.33;;;3.03;;
10154;SDS011;5118;48.570;7.916;2023-03-24T12:09:14;13.00;;;3.37;;
10154;SDS011;5118;48.570;7.916;2023-03-24T12:14:46;5.87;;;3.77;;
10154;SDS011;5118;48.570;7.916;2023-03-24T12:17:24;4.93;;;3.43;;
10154;SDS011;5118;48.570;7.916;2023-03-24T12:20:05;4.70;;;3.67;;
10154;SDS011;5118;48.570;7.916;2023-03-24T12:22:48;4.33;;;3.93;;
10154;SDS011;5118;48.570;7.916;2023-03-24T12:25:26;3.97;;;3.30;;
10154;SDS011;5118;48.570;7.916;2023-03-24T12:28:09;3.77;;;3.47;;
10154;SDS011;5118;48.570;7.916;2023-03-24T12:30:50;3.50;;;3.20;;
10154;SDS011;5118;48.570;7.916;2023-03-24T12:33:31;2.70;;;2.50;;
10154;SDS011;5118;48.570;7.916;2023-03-24T12:36:23;2.80;;;2.60;;
10154;SDS011;5118;48.570;7.916;2023-03-24T12:39:05;2.80;;;2.60;;
10154;SDS011;5118;48.570;7.916;2023-03-24T12:41:39;2.77;;;2.57;;
10154;SDS011;5118;48.570;7.916;2023-03-24T12:44:29;2.70;;;2.50;;
10154;SDS011;5118;48.570;7.916;2023-03-24T12:47:13;3.93;;;2.70;;
10154;SDS011;5118;48.570;7.916;2023-03-24T12:49:56;2.40;;;2.20;;
10154;SDS011;5118;48.570;7.916;2023-03-24T12:52:41;2.53;;;2.33;;
10154;SDS011;5118;48.570;7.916;2023-03-24T12:55:34;4.60;;;2.20;;
10154;SDS011;5118;48.570;7.916;2023-03-24T12:58:10;2.20;;;2.00;;
10154;SDS011;5118;48.570;7.916;2023-03-24T13:00:48;2.37;;;1.70;;
10154;SDS011;5118;48.570;7.916;2023-03-24T13:03:26;2.03;;;1.83;;
10154;SDS011;5118;48.570;7.916;2023-03-24T13:06:03;3.27;;;2.40;;
10154;SDS011;5118;48.570;7.916;2023-03-24T13:08:45;11.93;;;9.53;;
10154;SDS011;5118;48.570;7.916;2023-03-24T13:11:28;12.63;;;10.20;;
10154;SDS011;5118;48.570;7.916;2023-03-24T13:14:02;14.47;;;12.00;;
10154;SDS011;5118;48.570;7.916;2023-03-24T13:16:35;8.93;;;7.23;;
10154;SDS011;5118;48.570;7.916;2023-03-24T13:19:08;8.57;;;4.50;;
10154;SDS011;5118;48.570;7.916;2023-03-24T13:21:44;26.30;;;4.00;;
10154;SDS011;5118;48.570;7.916;2023-03-24T13:24:14;5.03;;;4.20;;
10154;SDS011;5118;48.570;7.916;2023-03-24T13:26:46;17.03;;;4.03;;
10154;SDS011;5118;48.570;7.916;2023-03-24T13:29:24;8.47;;;4.63;;
10154;SDS011;5118;48.570;7.916;2023-03-24T13:32:18;5.27;;;4.00;;
10154;SDS011;5118;48.570;7.916;2023-03-24T13:34:59;31.57;;;4.10;;
10154;SDS011;5118;48.570;7.916;2023-03-24T13:37:34;4.67;;;3.80;;
10154;SDS011;5118;48.570;7.916;2023-03-24T13:40:06;6.33;;;4.33;;
10154;SDS011;5118;48.570;7.916;2023-03-24T13:42:41;4.77;;;3.70;;
10154;SDS011;5118;48.570;7.916;2023-03-24T13:45:20;11.13;;;4.73;;
10154;SDS011;5118;48.570;7.916;2023-03-24T13:48:04;2.93;;;2.70;;
10154;SDS011;5118;48.570;7.916;2023-03-24T13:50:48;3.40;;;3.10;;
10154;SDS011;5118;48.570;7.916;2023-03-24T13:53:28;6.97;;;4.20;;
10154;SDS011;5118;48.570;7.916;2023-03-24T13:56:00;6.60;;;5.43;;
10154;SDS011;5118;48.570;7.916;2023-03-24T13:59:04;6.13;;;5.53;;
10154;SDS011;5118;48.570;7.916;2023-03-24T14:01:35;6.77;;;5.80;;
10154;SDS011;5118;48.570;7.916;2023-03-24T14:04:24;6.23;;;5.13;;
10154;SDS011;5118;48.570;7.916;2023-03-24T14:06:55;5.03;;;4.40;;
10154;SDS011;5118;48.570;7.916;2023-03-24T14:09:25;4.30;;;3.90;;
10154;SDS011;5118;48.570;7.916;2023-03-24T14:12:14;5.93;;;3.70;;
10154;SDS011;5118;48.570;7.916;2023-03-24T14:15:02;6.57;;;3.50;;
10154;SDS011;5118;48.570;7.916;2023-03-24T14:17:44;4.77;;;3.00;;
10154;SDS011;5118;48.570;7.916;2023-03-24T14:20:27;8.13;;;2.90;;
10154;SDS011;5118;48.570;7.916;2023-03-24T14:23:01;6.83;;;2.30;;
10154;SDS011;5118;48.570;7.916;2023-03-24T14:25:30;4.27;;;2.57;;
10154;SDS011;5118;48.570;7.916;2023-03-24T14:30:55;2.67;;;2.47;;
10154;SDS011;5118;48.570;7.916;2023-03-24T14:33:28;2.70;;;2.50;;
10154;SDS011;5118;48.570;7.916;2023-03-24T14:36:02;2.70;;;2.50;;
10154;SDS011;5118;48.570;7.916;2023-03-24T14:38:39;3.17;;;2.43;;
10154;SDS011;5118;48.570;7.916;2023-03-24T14:41:11;2.93;;;2.50;;
10154;SDS011;5118;48.570;7.916;2023-03-24T14:43:52;2.57;;;2.30;;
10154;SDS011;5118;48.570;7.916;2023-03-24T14:49:21;1.87;;;1.73;;
10154;SDS011;5118;48.570;7.916;2023-03-24T14:51:55;3.27;;;1.97;;
10154;SDS011;5118;48.570;7.916;2023-03-24T14:54:33;2.53;;;2.27;;
10154;SDS011;5118;48.570;7.916;2023-03-24T14:57:04;2.87;;;2.17;;
10154;SDS011;5118;48.570;7.916;2023-03-24T14:59:36;2.07;;;1.87;;
10154;SDS011;5118;48.570;7.916;2023-03-24T15:02:22;2.10;;;1.90;;
10154;SDS011;5118;48.570;7.916;2023-03-24T15:05:15;4.00;;;1.73;;
10154;SDS011;5118;48.570;7.916;2023-03-24T15:08:08;1.60;;;1.50;;
10154;SDS011;5118;48.570;7.916;2023-03-24T15:10:40;1.60;;;1.50;;
10154;SDS011;5118;48.570;7.916;2023-03-24T15:13:28;1.50;;;1.40;;
10154;SDS011;5118;48.570;7.916;2023-03-24T15:16:00;1.83;;;1.60;;
10154;SDS011;5118;48.570;7.916;2023-03-24T15:18:33;1.60;;;1.50;;
10154;SDS011;5118;48.570;7.916;2023-03-24T15:21:12;2.67;;;1.60;;
10154;SDS011;5118;48.570;7.916;2023-03-24T15:23:49;2.40;;;2.20;;
10154;SDS011;5118;48.570;7.916;2023-03-24T15:26:18;1.97;;;1.87;;
10154;SDS011;5118;48.570;7.916;2023-03-24T15:28:55;1.65;;;1.50;;
10154;SDS011;5118;48.570;7.916;2023-03-24T15:31:25;1.80;;;1.70;;
10154;SDS011;5118;48.570;7.916;2023-03-24T15:34:03;2.10;;;1.90;;
10154;SDS011;5118;48.570;7.916;2023-03-24T15:36:34;1.77;;;1.67;;
10154;SDS011;5118;48.570;7.916;2023-03-24T15:39:17;1.93;;;1.80;;
10154;SDS011;5118;48.570;7.916;2023-03-24T15:41:49;1.77;;;1.67;;
10154;SDS011;5118;48.570;7.916;2023-03-24T15:44:19;2.10;;;1.90;;
10154;SDS011;5118;48.570;7.916;2023-03-24T15:46:53;1.80;;;1.70;;
10154;SDS011;5118;48.570;7.916;2023-03-24T15:49:27;2.20;;;2.00;;
10154;SDS011;5118;48.570;7.916;2023-03-24T15:51:58;2.57;;;2.00;;
10154;SDS011;5118;48.570;7.916;2023-03-24T15:54:30;4.60;;;1.80;;
10154;SDS011;5118;48.570;7.916;2023-03-24T15:57:13;1.80;;;1.70;;
10154;SDS011;5118;48.570;7.916;2023-03-24T15:59:44;2.10;;;1.50;;
10154;SDS011;5118;48.570;7.916;2023-03-24T16:02:25;1.50;;;1.40;;
10154;SDS011;5118;48.570;7.916;2023-03-24T16:04:57;1.60;;;1.50;;
10154;SDS011;5118;48.570;7.916;2023-03-24T16:07:36;1.63;;;1.23;;
10154;SDS011;5118;48.570;7.916;2023-03-24T16:10:24;1.60;;;1.50;;
10154;SDS011;5118;48.570;7.916;2023-03-24T16:12:58;1.85;;;1.50;;